Time;durP1;ratioP1;P1;durP2;ratioP2;P2;SDS_P1;SDS_P2;PMS_P1;PMS_P2;Temp;Humidity;BMP_temperature;BMP_pressure;BME280_temperature;BME280_humidity;BME280_pressure;Samples;Min_cycle;Max_cycle;Signal;HPM_P1;HPM_P2
2024/02/04 00:02:13;;;;;;;12.70;3.40;;;;;;;13.50;77.36;98579.30;68009;1275;1016384;-67
2024/02/04 00:05:18;;;;;;;11.80;3.70;;;;;;;13.49;77.29;98579.15;68039;1275;1016797;-66
2024/02/04 00:08:21;;;;;;;11.90;3.60;;;;;;;13.52;77.41;98579.94;68072;1275;1016231;-67
2024/02/04 00:11:24;;;;;;;11.60;3.50;;;;;;;13.58;77.24;98574.08;68002;1275;1016221;-67
2024/02/04 00:14:27;;;;;;;;;;;;;;;13.61;77.25;98570.89;68006;1275;1016429;-67
2024/02/04 00:17:31;;;;;;;11.40;3.40;;;;;;;13.64;77.28;98582.43;68049;1274;1016282;-67
2024/02/04 00:20:33;;;;;;;11.60;3.50;;;;;;;13.66;77.17;98584.86;68036;1275;1016455;-66
2024/02/04 00:23:36;;;;;;;11.40;3.20;;;;;;;13.74;76.33;98584.08;68064;1275;1017041;-67
2024/02/04 00:26:38;;;;;;;12.90;3.70;;;;;;;13.80;75.67;98581.87;68006;1275;1016230;-66
2024/02/04 00:29:41;;;;;;;12.40;3.80;;;;;;;13.82;76.07;98598.79;67992;1275;1017910;-68
2024/02/04 00:32:43;;;;;;;12.40;3.40;;;;;;;13.81;75.81;98607.44;68063;1275;1016346;-67
2024/02/04 00:35:46;;;;;;;12.80;3.60;;;;;;;13.72;75.66;98609.36;68024;1252;1016220;-67
2024/02/04 00:38:48;;;;;;;13.20;3.30;;;;;;;13.79;75.23;98611.27;68007;1275;1015940;-67
2024/02/04 00:41:51;;;;;;;11.60;3.50;;;;;;;13.77;74.88;98607.54;68045;1275;1017951;-67
2024/02/04 00:44:54;;;;;;;13.50;3.30;;;;;;;13.79;74.79;98605.17;68070;1275;1016273;-67
2024/02/04 00:47:56;;;;;;;13.20;3.40;;;;;;;13.80;73.95;98605.61;68035;1275;1016411;-66
2024/02/04 00:50:59;;;;;;;13.90;3.50;;;;;;;13.89;72.90;98603.13;67984;1275;1016573;-67
2024/02/04 00:54:01;;;;;;;14.20;3.50;;;;;;;13.92;73.02;98594.79;68007;1275;1016320;-67
2024/02/04 00:57:04;;;;;;;;;;;;;;;13.92;72.19;98593.59;68038;1275;1016555;-67
2024/02/04 01:00:07;;;;;;;12.40;3.00;;;;;;;14.05;71.01;98574.66;68031;1275;1016475;-67
2024/02/04 01:03:10;;;;;;;8.80;2.90;;;;;;;14.05;71.08;98576.38;68016;1275;1016368;-67
2024/02/04 01:06:13;;;;;;;;;;;;;;;13.99;71.21;98573.36;67988;1275;1016279;-67
2024/02/04 01:09:15;;;;;;;9.30;2.80;;;;;;;14.03;71.25;98563.89;67993;1275;1016193;-67
2024/02/04 01:12:18;;;;;;;10.30;3.10;;;;;;;14.02;71.76;98570.84;68036;1275;1016221;-65
2024/02/04 01:15:20;;;;;;;12.10;3.40;;;;;;;13.95;72.25;98570.88;68050;1275;1016680;-67
2024/02/04 01:18:23;;;;;;;10.00;3.60;;;;;;;13.87;73.08;98567.08;67996;1275;1016166;-67
2024/02/04 01:21:25;;;;;;;13.30;3.10;;;;;;;13.86;73.54;98560.27;68018;1275;1016312;-67
2024/02/04 01:24:28;;;;;;;10.10;3.10;;;;;;;13.87;73.74;98559.73;68062;1259;1016131;-67
2024/02/04 01:27:30;;;;;;;11.10;3.10;;;;;;;13.77;74.10;98561.38;68005;1275;1016405;-66
2024/02/04 01:30:33;;;;;;;11.40;2.90;;;;;;;13.87;73.20;98557.26;68004;1275;1016538;-68
2024/02/04 01:33:35;;;;;;;9.70;3.30;;;;;;;13.78;73.40;98566.88;68058;1275;1016983;-68
2024/02/04 01:36:38;;;;;;;9.50;3.10;;;;;;;13.84;73.38;98561.89;68021;1275;1018202;-67
2024/02/04 01:39:40;;;;;;;9.30;3.00;;;;;;;13.92;72.67;98557.76;67995;1275;1016066;-67
2024/02/04 01:42:43;;;;;;;8.40;3.00;;;;;;;13.91;73.05;98556.37;68031;1275;1018555;-67
2024/02/04 01:45:45;;;;;;;9.80;3.10;;;;;;;13.93;73.39;98550.45;68052;1275;1016464;-67
2024/02/04 01:48:48;;;;;;;8.80;3.00;;;;;;;13.79;73.81;98560.82;68030;1275;1016172;-67
2024/02/04 01:51:50;;;;;;;10.20;3.00;;;;;;;13.78;73.51;98553.89;68036;1275;1016067;-67
2024/02/04 01:54:53;;;;;;;9.60;2.90;;;;;;;13.74;72.44;98549.45;67989;1275;1016141;-67
2024/02/04 01:57:56;;;;;;;12.10;2.80;;;;;;;13.68;71.97;98552.02;68046;1275;1016569;-66
2024/02/04 02:00:58;;;;;;;12.50;3.00;;;;;;;13.65;71.11;98544.71;68053;1275;1016466;-67
2024/02/04 02:04:02;;;;;;;7.90;2.40;;;;;;;13.71;68.91;98555.66;67962;1275;1016395;-67
2024/02/04 02:07:07;;;;;;;9.50;2.50;;;;;;;13.74;68.23;98560.85;68067;1275;1016284;-67
2024/02/04 02:10:10;;;;;;;9.00;2.40;;;;;;;13.66;66.97;98569.95;68033;1275;1016328;-67
2024/02/04 02:13:13;;;;;;;11.20;2.50;;;;;;;13.63;66.36;98564.72;68046;1275;1016479;-67
2024/02/04 02:16:17;;;;;;;8.50;2.50;;;;;;;13.65;65.32;98564.23;68001;1275;1016481;-67
2024/02/04 02:19:20;;;;;;;7.80;2.00;;;;;;;13.68;65.20;98557.98;68011;1275;1016340;-66
2024/02/04 02:22:22;;;;;;;7.80;2.00;;;;;;;13.62;64.46;98572.02;68052;1275;1016195;-67
2024/02/04 02:25:25;;;;;;;9.50;1.90;;;;;;;13.67;64.42;98567.96;68029;1275;1015763;-67
2024/02/04 02:28:27;;;;;;;8.90;2.10;;;;;;;13.75;62.98;98564.48;68005;1275;1019095;-64
2024/02/04 02:31:30;;;;;;;8.40;2.20;;;;;;;13.68;62.78;98559.08;68010;1275;1016422;-67
2024/02/04 02:34:32;;;;;;;9.40;2.00;;;;;;;13.70;61.79;98558.00;68051;1275;1016428;-67
2024/02/04 02:37:35;;;;;;;4.20;1.60;;;;;;;13.70;61.77;98553.81;68062;1275;1016409;-67
2024/02/04 02:40:37;;;;;;;7.60;1.80;;;;;;;13.65;61.89;98565.64;68025;1275;1016335;-65
2024/02/04 02:43:40;;;;;;;8.10;2.00;;;;;;;13.57;62.46;98567.67;68014;1275;1016506;-67
2024/02/04 02:46:42;;;;;;;6.20;2.00;;;;;;;13.61;62.20;98566.15;68050;1274;1016313;-68
2024/02/04 02:49:45;;;;;;;9.10;2.00;;;;;;;13.60;61.59;98574.65;68029;1274;1016407;-68
2024/02/04 02:52:49;;;;;;;8.70;1.90;;;;;;;13.57;61.36;98572.91;67987;1274;1016396;-67
2024/02/04 02:55:52;;;;;;;7.00;1.80;;;;;;;13.50;60.63;98579.96;68027;1274;1016403;-68
2024/02/04 02:58:54;;;;;;;7.40;1.80;;;;;;;13.54;59.82;98580.50;68072;1275;1017440;-67
2024/02/04 03:01:57;;;;;;;8.70;1.40;;;;;;;13.46;59.43;98586.92;68020;1275;1016219;-68
2024/02/04 03:04:59;;;;;;;8.30;1.70;;;;;;;13.40;57.83;98591.62;67971;1274;1016215;-68
2024/02/04 03:08:02;;;;;;;11.90;2.00;;;;;;;13.35;57.47;98573.04;68050;1275;1016476;-67
2024/02/04 03:11:05;;;;;;;8.50;1.60;;;;;;;13.28;57.68;98543.48;68051;1275;1016964;-68
2024/02/04 03:14:07;;;;;;;12.00;2.10;;;;;;;12.95;57.09;98562.50;68021;1275;1016528;-67
2024/02/04 03:17:11;;;;;;;;;;;;;;;12.80;57.35;98565.66;67984;1275;1016129;-68
2024/02/04 03:20:16;;;;;;;15.70;2.70;;;;;;;12.77;57.62;98553.11;68038;1274;1016772;-67
2024/02/04 03:23:19;;;;;;;13.00;2.20;;;;;;;12.89;57.53;98551.14;68049;1275;1016183;-67
2024/02/04 03:26:22;;;;;;;10.30;1.80;;;;;;;12.78;58.10;98548.82;67960;1275;1016215;-67
2024/02/04 03:29:24;;;;;;;8.90;1.60;;;;;;;12.67;58.68;98560.54;68050;1275;1016381;-68
2024/02/04 03:32:29;;;;;;;9.80;1.80;;;;;;;12.54;58.49;98573.55;68088;1274;1016250;-68
2024/02/04 03:35:31;;;;;;;12.00;1.90;;;;;;;12.53;58.20;98574.89;68021;1275;1016519;-68
2024/02/04 03:38:34;;;;;;;10.50;1.80;;;;;;;12.52;58.40;98561.27;68015;1275;1015699;-68
2024/02/04 03:41:38;;;;;;;9.60;1.40;;;;;;;12.54;57.66;98563.23;67982;1275;1018835;-68
2024/02/04 03:44:41;;;;;;;7.40;1.80;;;;;;;12.59;58.02;98551.64;67979;1275;1016074;-69
2024/02/04 03:47:43;;;;;;;7.10;1.60;;;;;;;12.53;58.19;98557.83;67950;1274;1016402;-68
2024/02/04 03:50:46;;;;;;;8.10;2.00;;;;;;;12.44;58.29;98568.52;67977;1275;1018229;-67
2024/02/04 03:53:48;;;;;;;11.10;2.00;;;;;;;12.45;58.93;98572.65;67955;1274;1016239;-64
2024/02/04 03:56:51;;;;;;;6.70;1.70;;;;;;;12.48;59.02;98572.27;68017;1275;1016952;-67
2024/02/04 03:59:53;;;;;;;14.00;2.80;;;;;;;12.41;59.87;98572.05;67995;1275;1016084;-68
2024/02/04 04:02:56;;;;;;;9.80;2.30;;;;;;;12.52;60.25;98573.23;68016;1275;1016145;-67
2024/02/04 04:05:58;;;;;;;10.30;2.10;;;;;;;12.59;60.52;98576.21;68019;1275;1016574;-65
2024/02/04 04:09:01;;;;;;;7.60;1.90;;;;;;;12.64;60.53;98574.02;68027;1275;1016426;-67
2024/02/04 04:12:03;;;;;;;9.90;2.20;;;;;;;12.52;60.22;98584.02;68015;1275;1016128;-67
2024/02/04 04:15:06;;;;;;;10.70;2.20;;;;;;;12.35;60.65;98592.13;68006;1275;1016695;-67
2024/02/04 04:18:10;;;;;;;12.50;2.10;;;;;;;12.20;61.28;98592.13;68053;1275;1016387;-67
2024/02/04 04:21:13;;;;;;;10.50;2.30;;;;;;;12.10;61.33;98595.13;68034;1274;1017844;-68
2024/02/04 04:24:19;;;;;;;11.10;2.10;;;;;;;11.94;60.81;98605.14;67983;1275;1016257;-67
2024/02/04 04:27:23;;;;;;;8.60;1.70;;;;;;;12.00;60.17;98591.79;68045;1275;1017094;-68
2024/02/04 04:30:26;;;;;;;;;;;;;;;11.97;59.87;98585.35;67972;1275;1018084;-67
2024/02/04 04:33:28;;;;;;;11.10;2.10;;;;;;;11.95;58.96;98588.45;67982;1275;1016578;-65
2024/02/04 04:36:31;;;;;;;9.30;2.00;;;;;;;11.94;58.29;98581.66;68025;1275;1017511;-67
2024/02/04 04:39:33;;;;;;;8.50;1.70;;;;;;;11.85;57.55;98584.79;68031;1275;1016471;-68
2024/02/04 04:42:36;;;;;;;10.70;2.30;;;;;;;11.86;56.15;98578.58;68047;1274;1016499;-68
2024/02/04 04:45:38;;;;;;;9.30;1.60;;;;;;;11.75;56.12;98588.80;68012;1275;1016267;-66
2024/02/04 04:48:41;;;;;;;12.40;2.10;;;;;;;11.66;54.81;98610.04;68008;1274;1016535;-68
2024/02/04 04:51:43;;;;;;;8.30;1.50;;;;;;;11.78;54.51;98607.09;68029;1275;1016484;-68
2024/02/04 04:54:45;;;;;;;10.80;1.90;;;;;;;11.74;53.96;98604.59;68047;1274;1016219;-68
2024/02/04 04:57:48;;;;;;;13.40;1.70;;;;;;;11.69;53.94;98606.14;68019;1275;1016397;-67
2024/02/04 05:00:50;;;;;;;11.40;1.70;;;;;;;11.68;53.61;98614.48;67977;1275;1016482;-67
2024/02/04 05:03:53;;;;;;;13.00;2.40;;;;;;;11.81;53.50;98614.08;68076;1275;1016585;-68
2024/02/04 05:06:56;;;;;;;8.60;1.50;;;;;;;11.88;53.50;98604.70;68066;1275;1016459;-68
2024/02/04 05:09:59;;;;;;;9.90;1.60;;;;;;;11.90;53.94;98608.20;68010;1275;1016034;-66
2024/02/04 05:13:01;;;;;;;15.00;1.80;;;;;;;11.89;53.60;98608.63;68039;1275;1016239;-68
2024/02/04 05:16:04;;;;;;;11.40;2.00;;;;;;;11.96;53.81;98613.92;68028;1275;1016411;-67
2024/02/04 05:19:06;;;;;;;16.70;2.20;;;;;;;11.99;54.36;98603.59;68043;1275;1016216;-68
2024/02/04 05:22:09;;;;;;;17.40;2.60;;;;;;;12.01;54.40;98612.01;67974;1275;1016396;-68
2024/02/04 05:25:11;;;;;;;15.50;2.50;;;;;;;12.10;54.20;98615.59;67983;1275;1016359;-67
2024/02/04 05:28:14;;;;;;;15.60;2.40;;;;;;;12.05;54.50;98621.39;68048;1275;1016426;-68
2024/02/04 05:31:16;;;;;;;19.40;2.50;;;;;;;12.11;55.22;98602.42;68004;1275;1016222;-68
2024/02/04 05:34:19;;;;;;;16.30;2.00;;;;;;;12.12;54.81;98608.96;67982;1275;1016622;-66
2024/02/04 05:37:21;;;;;;;17.80;2.80;;;;;;;11.84;56.40;98611.63;67977;1275;1016184;-67
2024/02/04 05:40:24;;;;;;;15.90;2.20;;;;;;;11.86;56.72;98608.70;68051;1275;1016713;-68
2024/02/04 05:43:26;;;;;;;16.60;2.70;;;;;;;11.90;56.79;98606.50;67993;1275;1016236;-68
2024/02/04 05:46:29;;;;;;;13.80;2.00;;;;;;;11.89;56.74;98599.90;65898;1275;5383923;-68
2024/02/04 05:49:32;;;;;;;15.40;2.10;;;;;;;11.80;57.11;98598.58;68045;1275;1016501;-67
2024/02/04 05:52:34;;;;;;;15.00;2.40;;;;;;;11.95;56.90;98585.41;67997;1275;1016489;-67
2024/02/04 05:55:37;;;;;;;10.40;2.20;;;;;;;12.10;55.72;98588.41;68004;1275;1016534;-67
2024/02/04 05:58:39;;;;;;;10.40;1.90;;;;;;;12.21;55.65;98596.27;68005;1275;1016429;-67
2024/02/04 06:01:42;;;;;;;12.90;2.40;;;;;;;12.24;56.11;98595.92;68071;1251;1016479;-68
2024/02/04 06:04:48;;;;;;;9.50;1.50;;;;;;;12.22;57.07;98597.23;68056;1275;1018520;-68
2024/02/04 06:07:51;;;;;;;15.60;2.70;;;;;;;12.23;57.97;98595.63;67985;1275;1016473;-68
2024/02/04 06:10:54;;;;;;;;;;;;;;;12.21;59.32;98588.05;68077;1275;1016075;-68
2024/02/04 06:13:56;;;;;;;19.70;3.30;;;;;;;12.14;61.03;98587.46;68030;1275;1016432;-68
2024/02/04 06:16:59;;;;;;;14.40;3.20;;;;;;;11.98;62.60;98598.89;67967;1275;1016383;-66
2024/02/04 06:20:01;;;;;;;11.90;2.30;;;;;;;11.93;63.67;98605.40;68026;1275;1016400;-67
2024/02/04 06:23:04;;;;;;;15.60;2.70;;;;;;;11.85;64.28;98620.49;68034;1274;1016490;-68
2024/02/04 06:26:06;;;;;;;11.00;2.10;;;;;;;11.94;63.38;98614.11;68022;1274;1016489;-68
2024/02/04 06:29:09;;;;;;;16.90;2.60;;;;;;;12.07;62.44;98618.63;68000;1274;1016305;-65
2024/02/04 06:32:11;;;;;;;14.60;2.80;;;;;;;12.03;62.34;98625.05;68020;1274;1016337;-68
2024/02/04 06:35:14;;;;;;;11.60;2.20;;;;;;;12.09;62.71;98624.29;68046;1274;1016541;-68
2024/02/04 06:38:17;;;;;;;9.90;2.20;;;;;;;12.01;61.34;98623.44;68017;1274;1016260;-68
2024/02/04 06:41:19;;;;;;;11.00;1.60;;;;;;;11.99;61.26;98629.67;67989;1274;1016536;-67
2024/02/04 06:44:22;;;;;;;9.70;2.20;;;;;;;11.75;59.65;98640.09;68042;1274;1016270;-67
2024/02/04 06:47:24;;;;;;;14.80;2.30;;;;;;;12.02;63.01;98629.69;68053;1274;1016479;-67
2024/02/04 06:50:27;;;;;;;9.70;2.00;;;;;;;11.96;59.26;98634.98;67956;1274;1016328;-68
2024/02/04 06:53:29;;;;;;;14.00;2.40;;;;;;;11.91;58.26;98636.20;68017;1274;1016351;-68
2024/02/04 06:56:32;;;;;;;15.20;2.50;;;;;;;11.86;56.97;98627.96;68043;1274;1017406;-68
2024/02/04 06:59:34;;;;;;;13.90;2.70;;;;;;;11.94;57.06;98620.40;68063;1274;1016245;-68
2024/02/04 07:02:37;;;;;;;13.90;2.10;;;;;;;12.08;56.19;98615.77;67985;1274;1016266;-68
2024/02/04 07:05:39;;;;;;;9.50;1.70;;;;;;;12.24;55.66;98613.96;67976;1274;1016709;-68
2024/02/04 07:08:42;;;;;;;14.40;2.40;;;;;;;12.15;55.49;98607.90;68021;1274;1016439;-68
2024/02/04 07:11:44;;;;;;;12.80;2.10;;;;;;;11.97;55.79;98623.32;68025;1274;1015717;-68
2024/02/04 07:14:47;;;;;;;16.00;3.10;;;;;;;12.12;55.64;98622.43;67993;1274;1016442;-68
2024/02/04 07:17:49;;;;;;;14.10;2.50;;;;;;;12.33;54.96;98616.96;67958;1274;1016529;-68
2024/02/04 07:20:52;;;;;;;11.70;2.40;;;;;;;12.36;54.47;98613.23;67994;1274;1015997;-68
2024/02/04 07:23:54;;;;;;;13.70;2.30;;;;;;;12.41;53.95;98608.67;68055;1275;1017520;-69
2024/02/04 07:26:57;;;;;;;12.00;2.30;;;;;;;12.47;54.20;98604.56;68006;1275;1016907;-68
2024/02/04 07:29:59;;;;;;;10.50;1.80;;;;;;;12.39;53.96;98615.30;67988;1274;1016303;-67
2024/02/04 07:33:02;;;;;;;15.30;2.50;;;;;;;12.19;55.00;98619.72;67994;1275;1016477;-67
2024/02/04 07:36:04;;;;;;;13.50;1.90;;;;;;;12.24;55.04;98619.16;68048;1275;1016165;-71
2024/02/04 07:39:07;;;;;;;10.30;1.80;;;;;;;12.22;54.71;98620.20;67994;1275;1016450;-70
2024/02/04 07:42:10;;;;;;;;;;;;;;;12.35;54.54;98622.23;68001;1275;1016480;-70
2024/02/04 07:45:12;;;;;;;4.30;1.30;;;;;;;12.42;53.79;98607.06;67987;1274;1017224;-70
2024/02/04 07:48:15;;;;;;;15.60;2.30;;;;;;;12.38;53.72;98620.44;68017;1275;1016351;-70
2024/02/04 07:51:17;;;;;;;9.90;1.70;;;;;;;12.60;52.41;98613.79;67991;1275;1018142;-71
2024/02/04 07:54:20;;;;;;;10.00;1.80;;;;;;;12.37;52.72;98621.24;67970;1275;1016404;-69
2024/02/04 07:57:22;;;;;;;16.10;2.20;;;;;;;12.41;53.09;98618.70;68022;1274;1016622;-70
2024/02/04 08:00:25;;;;;;;11.60;1.80;;;;;;;12.19;52.68;98630.27;68048;1275;1016336;-70
2024/02/04 08:03:27;;;;;;;11.60;2.60;;;;;;;12.06;52.97;98627.30;68021;1275;1016178;-70
2024/02/04 08:06:30;;;;;;;13.40;2.20;;;;;;;12.08;53.74;98614.05;67985;1274;1016354;-70
2024/02/04 08:09:32;;;;;;;10.60;1.80;;;;;;;11.89;54.43;98629.86;68025;1275;1016320;-71
2024/02/04 08:12:35;;;;;;;14.20;2.00;;;;;;;11.91;55.73;98617.45;68028;1275;1017269;-70
2024/02/04 08:15:37;;;;;;;8.00;1.80;;;;;;;12.10;55.28;98624.17;68007;1275;1016374;-71
2024/02/04 08:18:40;;;;;;;16.70;2.50;;;;;;;11.98;56.17;98627.30;67977;1275;1018326;-67
2024/02/04 08:21:43;;;;;;;15.60;2.20;;;;;;;11.92;57.59;98626.83;68034;1275;1016438;-71
2024/02/04 08:24:46;;;;;;;12.90;2.50;;;;;;;11.81;58.46;98625.81;68011;1275;1016960;-71
2024/02/04 08:27:49;;;;;;;11.90;2.00;;;;;;;11.73;58.66;98625.48;68034;1275;1016395;-70
2024/02/04 08:30:52;;;;;;;16.00;2.70;;;;;;;11.71;57.99;98644.55;67998;1275;1016428;-70
2024/02/04 08:33:54;;;;;;;18.30;3.30;;;;;;;11.85;58.26;98637.80;67959;1275;1019042;-70
2024/02/04 08:36:57;;;;;;;11.80;2.30;;;;;;;11.92;57.32;98637.35;67965;1275;1016288;-70
2024/02/04 08:39:59;;;;;;;18.20;2.70;;;;;;;11.95;57.21;98646.27;68043;1275;1019887;-70
2024/02/04 08:43:02;;;;;;;20.70;2.70;;;;;;;12.16;57.08;98648.83;68019;1275;1016654;-71
2024/02/04 08:46:04;;;;;;;13.00;2.20;;;;;;;12.17;56.24;98661.41;67955;1275;1017063;-70
2024/02/04 08:49:07;;;;;;;16.20;2.50;;;;;;;12.04;56.23;98671.27;67980;1275;1016252;-70
2024/02/04 08:52:09;;;;;;;10.70;2.20;;;;;;;11.98;56.32;98664.83;68002;1275;1016253;-70
2024/02/04 08:55:12;;;;;;;13.40;2.40;;;;;;;11.98;56.26;98656.04;68038;1275;1016382;-69
2024/02/04 08:58:14;;;;;;;16.10;2.70;;;;;;;12.07;55.12;98655.98;67994;1275;1016489;-70
2024/02/04 09:01:17;;;;;;;12.00;3.00;;;;;;;12.23;55.24;98654.48;67990;1275;1016434;-71
2024/02/04 09:04:19;;;;;;;14.60;2.50;;;;;;;12.39;54.52;98653.71;68027;1275;1016366;-70
2024/02/04 09:07:22;;;;;;;13.30;2.10;;;;;;;12.44;54.41;98658.98;68033;1275;1016534;-70
2024/02/04 09:10:24;;;;;;;13.20;2.60;;;;;;;12.38;52.89;98661.67;67963;1275;1016448;-71
2024/02/04 09:13:27;;;;;;;15.50;2.90;;;;;;;12.44;53.09;98659.01;67974;1275;1016258;-71
2024/02/04 09:16:29;;;;;;;14.20;2.40;;;;;;;12.47;52.67;98661.41;68016;1275;1016326;-71
2024/02/04 09:19:32;;;;;;;17.00;2.80;;;;;;;12.53;52.88;98655.88;68022;1275;1016052;-70
2024/02/04 09:22:34;;;;;;;19.00;3.30;;;;;;;12.64;52.23;98674.41;67966;1275;1016396;-70
2024/02/04 09:25:37;;;;;;;22.80;3.60;;;;;;;12.83;51.62;98659.38;67962;1275;1016584;-71
2024/02/04 09:28:39;;;;;;;22.40;3.90;;;;;;;12.88;50.98;98648.95;67997;1275;1018411;-70
2024/02/04 09:31:42;;;;;;;23.10;4.00;;;;;;;12.91;51.31;98647.74;68000;1275;1016271;-70
2024/02/04 09:34:44;;;;;;;19.60;3.30;;;;;;;12.98;51.39;98647.56;67967;1275;1018326;-70
2024/02/04 09:37:47;;;;;;;11.50;2.20;;;;;;;12.92;51.07;98656.79;67969;1275;1016168;-70
2024/02/04 09:40:49;;;;;;;16.10;2.40;;;;;;;13.02;51.59;98664.60;67978;1275;1016326;-70
2024/02/04 09:43:52;;;;;;;14.80;2.10;;;;;;;13.09;50.71;98662.16;67983;1275;1016600;-69
2024/02/04 09:46:58;;;;;;;15.30;2.50;;;;;;;13.20;51.41;98657.50;67948;1275;1016503;-70
2024/02/04 09:50:01;;;;;;;15.60;2.40;;;;;;;13.39;51.08;98653.14;67949;1275;1017685;-70
2024/02/04 09:53:03;;;;;;;12.10;2.10;;;;;;;13.42;51.28;98655.52;67960;1274;1016434;-65
2024/02/04 09:56:06;;;;;;;;;;;;;;;13.29;50.92;98647.73;68000;1275;1016300;-70
2024/02/04 09:59:09;;;;;;;17.90;2.50;;;;;;;13.09;51.62;98661.80;67938;1275;1016463;-70
2024/02/04 10:02:12;;;;;;;14.60;2.50;;;;;;;13.29;51.37;98644.39;67914;1275;1016054;-70
2024/02/04 10:05:15;;;;;;;16.50;2.90;;;;;;;13.56;50.97;98641.36;67941;1275;1016372;-70
2024/02/04 10:08:18;;;;;;;17.50;3.20;;;;;;;13.44;51.70;98643.45;67981;1275;1016263;-70
2024/02/04 10:11:20;;;;;;;9.40;1.90;;;;;;;13.47;51.05;98635.73;68006;1275;1019548;-70
2024/02/04 10:14:23;;;;;;;17.30;2.90;;;;;;;13.32;50.54;98641.36;67986;1275;1016177;-70
2024/02/04 10:17:26;;;;;;;16.40;2.80;;;;;;;13.46;50.84;98627.30;68012;1275;1016334;-71
2024/02/04 10:20:28;;;;;;;18.10;3.30;;;;;;;13.48;50.22;98623.89;67990;1275;1016502;-71
2024/02/04 10:23:31;;;;;;;15.00;3.10;;;;;;;13.25;50.64;98617.63;67961;1275;1016436;-70
2024/02/04 10:26:35;;;;;;;14.90;2.90;;;;;;;13.27;50.78;98613.23;67938;1274;1016577;-70
2024/02/04 10:29:38;;;;;;;17.60;3.20;;;;;;;13.19;50.65;98604.21;67989;1275;1016245;-71
2024/02/04 10:32:41;;;;;;;11.00;2.50;;;;;;;13.24;50.76;98590.18;68000;1275;1015996;-65
2024/02/04 10:35:43;;;;;;;11.60;2.00;;;;;;;13.17;49.72;98591.20;67946;1275;1016436;-70
2024/02/04 10:38:46;;;;;;;14.70;3.00;;;;;;;13.35;49.25;98575.14;67959;1275;1016206;-70
2024/02/04 10:41:48;;;;;;;16.80;2.80;;;;;;;13.48;49.22;98570.48;67958;1275;1016152;-70
2024/02/04 10:44:51;;;;;;;13.40;2.70;;;;;;;13.46;48.69;98569.73;67986;1275;1016498;-70
2024/02/04 10:47:53;;;;;;;13.80;2.50;;;;;;;13.57;49.11;98555.58;67943;1275;1016420;-70
2024/02/04 10:50:56;;;;;;;10.90;1.90;;;;;;;13.27;47.94;98574.09;67933;1275;1016367;-70
2024/02/04 10:53:58;;;;;;;11.00;2.40;;;;;;;13.20;47.32;98581.10;67997;1275;1016475;-70
2024/02/04 10:57:01;;;;;;;10.30;1.90;;;;;;;13.45;47.33;98565.63;67989;1275;1016462;-70
2024/02/04 11:00:08;;;;;;;12.00;2.20;;;;;;;13.50;46.88;98562.05;67974;1275;1016597;-65
2024/02/04 11:03:10;;;;;;;9.90;2.10;;;;;;;13.80;45.89;98549.90;67984;1275;1016511;-69
2024/02/04 11:06:13;;;;;;;13.70;2.30;;;;;;;13.90;45.52;98555.23;68000;1275;1016818;-70
2024/02/04 11:09:16;;;;;;;;;;;;;;;13.87;45.96;98541.47;67981;1275;1016214;-69
2024/02/04 11:12:18;;;;;;;14.50;2.00;;;;;;;14.07;45.60;98537.20;67968;1274;1016250;-69
2024/02/04 11:15:21;;;;;;;11.00;2.00;;;;;;;13.92;44.81;98550.35;68011;1253;1016266;-70
2024/02/04 11:18:23;;;;;;;13.30;2.20;;;;;;;14.05;45.40;98533.67;67971;1275;1016582;-70
2024/02/04 11:21:26;;;;;;;10.10;2.50;;;;;;;13.98;44.91;98531.59;67933;1275;1016201;-70
2024/02/04 11:24:28;;;;;;;10.50;1.80;;;;;;;13.94;45.15;98530.11;67953;1273;1016163;-70
2024/02/04 11:27:31;;;;;;;15.10;2.10;;;;;;;13.85;45.10;98535.92;67982;1275;1016180;-70
2024/02/04 11:30:33;;;;;;;14.80;2.70;;;;;;;13.68;44.87;98517.05;67992;1275;1016420;-70
2024/02/04 11:33:36;;;;;;;11.60;2.40;;;;;;;13.66;45.08;98515.30;67956;1274;1016622;-68
2024/02/04 11:36:38;;;;;;;12.80;2.30;;;;;;;13.59;44.63;98515.10;67958;1275;1016257;-70
2024/02/04 11:39:41;;;;;;;12.70;2.20;;;;;;;13.85;44.94;98511.86;67996;1274;1016376;-70
2024/02/04 11:42:44;;;;;;;13.30;2.00;;;;;;;13.92;43.61;98513.82;67996;1274;1016054;-70
2024/02/04 11:45:46;;;;;;;19.40;3.50;;;;;;;13.88;43.62;98503.36;67928;1274;1016457;-71
2024/02/04 11:48:49;;;;;;;14.50;2.50;;;;;;;14.01;43.66;98497.08;67959;1275;1016201;-70
2024/02/04 11:51:52;;;;;;;8.10;2.00;;;;;;;14.14;43.35;98490.91;67944;1275;1016252;-71
2024/02/04 11:54:54;;;;;;;;;;;;;;;14.31;43.68;98485.84;67963;1275;1016496;-70
2024/02/04 11:57:57;;;;;;;12.00;2.60;;;;;;;14.69;42.77;98481.77;68016;1275;1016431;-70
2024/02/04 12:00:59;;;;;;;13.00;1.90;;;;;;;14.50;42.25;98488.05;67960;1275;1018080;-70
2024/02/04 12:04:02;;;;;;;11.20;2.00;;;;;;;14.42;43.00;98464.92;67963;1275;1016456;-64
2024/02/04 12:07:05;;;;;;;14.50;2.30;;;;;;;14.37;42.47;98478.55;67991;1275;1018339;-70
2024/02/04 12:10:07;;;;;;;;;;;;;;;14.46;42.75;98460.71;67996;1275;1016227;-70
2024/02/04 12:13:10;;;;;;;10.80;2.30;;;;;;;14.49;42.83;98451.66;67976;1274;1016164;-70
2024/02/04 12:16:12;;;;;;;11.80;2.10;;;;;;;14.48;42.31;98447.52;67959;1275;1016460;-70
2024/02/04 12:19:15;;;;;;;17.40;2.90;;;;;;;14.47;42.08;98446.58;68041;1275;1016491;-71
2024/02/04 12:22:17;;;;;;;14.40;2.60;;;;;;;14.49;42.05;98439.15;67995;1275;1016355;-70
2024/02/04 12:25:20;;;;;;;19.10;3.60;;;;;;;14.34;42.38;98435.69;67959;1275;1016144;-70
2024/02/04 12:28:22;;;;;;;10.70;2.50;;;;;;;14.46;42.57;98426.38;67956;1275;1016458;-69
2024/02/04 12:31:25;;;;;;;11.30;2.50;;;;;;;14.32;42.38;98430.02;67960;1275;1016243;-70
2024/02/04 12:34:27;;;;;;;13.00;2.70;;;;;;;14.18;42.37;98410.27;67986;1275;1016960;-70
2024/02/04 12:37:30;;;;;;;16.00;2.40;;;;;;;14.19;42.54;98412.41;68001;1275;1016498;-70
2024/02/04 12:40:33;;;;;;;11.50;2.30;;;;;;;14.09;42.34;98423.14;67977;1275;1016497;-70
2024/02/04 12:43:36;;;;;;;12.20;1.90;;;;;;;14.04;42.34;98418.42;67980;1275;1016396;-70
2024/02/04 12:46:39;;;;;;;10.20;2.00;;;;;;;14.16;42.78;98412.04;67972;1275;1016160;-70
2024/02/04 12:49:42;;;;;;;13.20;2.50;;;;;;;14.21;42.21;98398.06;67978;1275;1016436;-70
2024/02/04 12:52:44;;;;;;;16.30;3.10;;;;;;;14.24;42.52;98381.77;67971;1275;1016486;-71
2024/02/04 12:55:47;;;;;;;13.40;2.80;;;;;;;14.39;42.60;98374.95;67970;1275;1017179;-68
2024/02/04 12:58:49;;;;;;;;;;;;;;;14.34;42.27;98364.61;67979;1275;1016367;-70
2024/02/04 13:01:52;;;;;;;8.90;1.90;;;;;;;14.22;42.50;98366.48;67941;1275;1019509;-71
2024/02/04 13:04:54;;;;;;;;;;;;;;;14.03;42.78;98362.77;67985;1275;1016741;-70
2024/02/04 13:07:57;;;;;;;12.10;1.80;;;;;;;14.09;43.39;98359.31;68028;1275;1016356;-70
2024/02/04 13:11:00;;;;;;;10.70;2.00;;;;;;;14.02;44.02;98361.09;68007;1275;1016073;-70
2024/02/04 13:14:03;;;;;;;10.50;2.30;;;;;;;14.08;43.94;98360.08;67963;1275;1016507;-69
2024/02/04 13:17:05;;;;;;;16.40;2.80;;;;;;;14.05;44.10;98361.73;67999;1275;1015950;-70
2024/02/04 13:20:09;;;;;;;;;;;;;;;13.99;44.47;98359.41;67983;1275;1016014;-70
2024/02/04 13:23:12;;;;;;;14.90;2.60;;;;;;;14.15;45.20;98354.64;68017;1274;1016194;-70
2024/02/04 13:26:14;;;;;;;13.50;2.40;;;;;;;13.94;45.31;98357.88;68005;1275;1016491;-70
2024/02/04 13:29:17;;;;;;;15.60;2.70;;;;;;;13.98;45.78;98354.05;67957;1275;1017283;-70
2024/02/04 13:32:19;;;;;;;15.60;3.50;;;;;;;13.90;45.99;98363.48;67972;1275;1018432;-69
2024/02/04 13:35:22;;;;;;;17.60;3.50;;;;;;;13.92;46.11;98361.92;68031;1275;1016154;-68
2024/02/04 13:38:24;;;;;;;14.90;4.10;;;;;;;13.91;46.56;98361.69;67971;1275;1016455;-71
2024/02/04 13:41:27;;;;;;;11.10;2.90;;;;;;;13.80;46.59;98359.09;67973;1275;1016023;-70
2024/02/04 13:44:30;;;;;;;21.00;4.20;;;;;;;14.00;46.28;98348.96;67998;1275;1016311;-70
2024/02/04 13:47:32;;;;;;;13.70;3.00;;;;;;;14.06;46.69;98336.02;67998;1275;1016247;-63
2024/02/04 13:50:36;;;;;;;18.10;3.50;;;;;;;13.89;46.18;98342.98;67993;1266;1016352;-70
2024/02/04 13:53:39;;;;;;;17.30;4.00;;;;;;;13.72;46.72;98345.65;67969;1275;1016417;-69
2024/02/04 13:56:41;;;;;;;10.90;3.00;;;;;;;13.69;46.71;98342.48;67971;1275;1015931;-70